Time;durP1;ratioP1;P1;durP2;ratioP2;P2;SDS_P1;SDS_P2;PMS_P1;PMS_P2;Temp;Humidity;BMP_temperature;BMP_pressure;BME280_temperature;BME280_humidity;BME280_pressure;Samples;Min_cycle;Max_cycle;Signal;HPM_P1;HPM_P2
2021/07/20 00:07:27;;;;;;;6.13;1.70;;;16.30;99.90;;;;;;20724848;28;20059;-48
2021/07/20 00:17:29;;;;;;;4.55;1.67;;;16.20;99.90;;;;;;20721439;28;20064;-48
2021/07/20 00:27:30;;;;;;;4.85;1.73;;;16.10;99.90;;;;;;20720694;28;20045;-48
2021/07/20 00:37:32;;;;;;;5.18;1.92;;;16.00;99.90;;;;;;20722653;28;20132;-48
2021/07/20 00:47:34;;;;;;;6.25;1.95;;;16.00;99.90;;;;;;20717975;28;20045;-48
2021/07/20 00:57:36;;;;;;;6.13;1.80;;;15.80;99.90;;;;;;20718141;28;20053;-48
2021/07/20 01:07:38;;;;;;;5.45;1.73;;;15.70;99.90;;;;;;20714228;28;20049;-48
2021/07/20 01:17:42;;;;;;;5.43;2.33;;;15.60;99.90;;;;;;20720399;28;20076;-48
2021/07/20 01:27:53;;;;;;;8.45;2.58;;;15.40;99.90;;;;;;20722769;28;20049;-52
2021/07/20 01:37:57;;;;;;;5.97;1.85;;;15.40;99.90;;;;;;20711208;28;20144;-48
2021/07/20 01:48:00;;;;;;;6.80;2.20;;;15.40;99.90;;;;;;20716299;28;20037;-48
2021/07/20 01:58:01;;;;;;;9.00;2.60;;;15.30;99.90;;;;;;20714035;28;20053;-48
2021/07/20 02:18:29;;;;;;;6.93;2.20;;;14.90;99.90;;;;;;20728971;28;20061;-48
2021/07/20 02:28:31;;;;;;;6.05;2.55;;;14.90;99.90;;;;;;20723650;28;20045;-48
2021/07/20 02:38:36;;;;;;;4.22;2.00;;;14.80;99.90;;;;;;20725391;28;20050;-48
2021/07/20 02:48:39;;;;;;;5.57;2.10;;;14.70;99.90;;;;;;20723882;28;20038;-48
2021/07/20 02:58:43;;;;;;;7.40;2.78;;;14.60;99.90;;;;;;20727672;28;20145;-48
2021/07/20 03:08:46;;;;;;;9.30;2.80;;;14.50;99.90;;;;;;20722967;28;20085;-48
2021/07/20 03:18:48;;;;;;;7.45;2.15;;;14.40;99.90;;;;;;20718621;28;20044;-48
2021/07/20 03:28:50;;;;;;;3.75;1.77;;;14.20;99.90;;;;;;20727625;28;20038;-48
2021/07/20 03:38:52;;;;;;;9.63;2.60;;;14.20;99.90;;;;;;20728787;28;20056;-48
2021/07/20 03:48:54;;;;;;;6.32;1.88;;;14.20;99.90;;;;;;20716473;28;20049;-48
2021/07/20 03:58:56;;;;;;;8.75;2.08;;;14.10;99.90;;;;;;20725387;28;20083;-48
2021/07/20 04:08:59;;;;;;;6.68;2.28;;;14.10;99.90;;;;;;20711720;28;20161;-47
2021/07/20 04:19:00;;;;;;;5.88;2.17;;;14.00;99.90;;;;;;20714121;28;20058;-48
2021/07/20 04:29:02;;;;;;;7.57;1.90;;;14.00;99.90;;;;;;20720430;28;20046;-48
2021/07/20 04:39:04;;;;;;;5.57;2.53;;;13.90;99.90;;;;;;20711780;28;20037;-48
2021/07/20 04:49:06;;;;;;;6.40;2.28;;;14.10;99.90;;;;;;20705581;28;20045;-48
2021/07/20 04:59:11;;;;;;;5.80;2.05;;;14.00;99.90;;;;;;20715636;28;20068;-48
2021/07/20 05:09:13;;;;;;;6.85;2.65;;;14.80;99.90;;;;;;20712972;28;20046;-48
2021/07/20 05:19:16;;;;;;;8.27;2.63;;;14.90;99.90;;;;;;20716232;28;20159;-48
2021/07/20 05:29:20;;;;;;;6.43;1.65;;;14.90;99.90;;;;;;20717734;28;20061;-49
2021/07/20 05:39:21;;;;;;;6.57;1.83;;;15.10;99.90;;;;;;20725964;28;20129;-48
2021/07/20 05:49:22;;;;;;;5.57;1.85;;;15.50;99.90;;;;;;20706651;28;20052;-48
2021/07/20 05:59:25;;;;;;;3.63;1.52;;;15.80;99.90;;;;;;20740986;28;20045;-48
2021/07/20 06:09:26;;;;;;;3.95;1.60;;;16.30;99.90;;;;;;20737914;28;20377;-49
2021/07/20 06:19:27;;;;;;;7.13;2.35;;;16.60;99.90;;;;;;20726882;28;20057;-49
2021/07/20 06:29:31;;;;;;;3.35;1.42;;;17.00;99.90;;;;;;20715667;28;20041;-49
2021/07/20 06:39:33;;;;;;;3.80;1.92;;;17.20;99.90;;;;;;20736137;28;20053;-48
2021/07/20 06:49:37;;;;;;;4.03;1.73;;;17.40;99.90;;;;;;20733749;28;20053;-49
2021/07/20 06:59:39;;;;;;;3.80;1.45;;;17.60;99.90;;;;;;20734655;28;20081;-48
2021/07/20 07:09:42;;;;;;;4.63;1.77;;;17.90;99.90;;;;;;20699761;28;20171;-48
2021/07/20 07:19:51;;;;;;;3.97;1.52;;;18.20;99.90;;;;;;20590151;28;20377;-49
2021/07/20 07:29:53;;;;;;;3.83;1.05;;;18.20;99.90;;;;;;20659431;28;20046;-50
2021/07/20 07:39:59;;;;;;;12.90;2.08;;;18.30;99.90;;;;;;20664332;28;20046;-49
2021/07/20 07:50:01;;;;;;;5.38;1.48;;;18.30;99.90;;;;;;20692694;28;20050;-49
2021/07/20 08:00:05;;;;;;;11.38;1.67;;;18.40;99.90;;;;;;20739949;28;20120;-48
2021/07/20 08:10:10;;;;;;;3.40;1.77;;;18.50;99.90;;;;;;20731497;28;20049;-47
2021/07/20 08:20:13;;;;;;;4.22;1.40;;;18.70;99.90;;;;;;20727482;28;20088;-47
2021/07/20 08:30:17;;;;;;;4.82;1.42;;;19.00;99.90;;;;;;20703335;28;20145;-48
2021/07/20 08:40:46;;;;;;;3.55;1.33;;;19.20;99.90;;;;;;20667701;28;20132;-49
2021/07/20 08:50:59;;;;;;;2.05;0.93;;;19.60;99.90;;;;;;20636877;28;20247;-48
2021/07/20 09:01:23;;;;;;;3.30;1.40;;;19.70;99.90;;;;;;20649424;28;20315;-47
2021/07/20 09:11:45;;;;;;;3.80;1.70;;;20.30;99.90;;;;;;20678782;28;20356;-48
2021/07/20 09:21:51;;;;;;;5.88;1.52;;;20.40;99.90;;;;;;20651325;28;20096;-47
2021/07/20 09:32:06;;;;;;;4.32;1.75;;;20.70;99.90;;;;;;20652173;28;20037;-48
2021/07/20 09:42:17;;;;;;;3.15;1.10;;;20.80;99.90;;;;;;20680306;28;20124;-48
2021/07/20 09:52:40;;;;;;;4.68;1.98;;;20.80;99.90;;;;;;20696485;28;20169;-50
2021/07/20 10:02:48;;;;;;;2.75;1.45;;;21.10;99.90;;;;;;20636033;28;20151;-49
2021/07/20 10:13:02;;;;;;;4.15;1.45;;;21.30;99.90;;;;;;20707770;28;20037;-48
2021/07/20 10:23:03;;;;;;;5.10;1.73;;;21.20;99.90;;;;;;20641486;28;20049;-49
2021/07/20 10:33:26;;;;;;;4.43;1.50;;;21.50;99.90;;;;;;20725528;28;20041;-49
2021/07/20 10:43:41;;;;;;;3.83;1.52;;;21.70;99.90;;;;;;20729766;28;20057;-49
2021/07/20 10:54:01;;;;;;;3.42;1.67;;;21.90;99.90;;;;;;20728699;28;20052;-50
2021/07/20 11:04:05;;;;;;;4.68;1.70;;;21.80;99.90;;;;;;20728908;28;20042;-49
2021/07/20 11:14:08;;;;;;;5.32;1.52;;;22.10;99.90;;;;;;20711788;28;22361;-50
2021/07/20 11:24:13;;;;;;;4.40;1.55;;;22.00;99.90;;;;;;20694146;28;20041;-49
2021/07/20 11:34:36;;;;;;;3.33;1.17;;;22.00;99.90;;;;;;20724522;28;20044;-48
2021/07/20 11:44:44;;;;;;;4.80;2.00;;;22.40;99.90;;;;;;20728227;28;20493;-48
2021/07/20 11:55:11;;;;;;;5.40;2.20;;;22.50;99.90;;;;;;20726669;28;20054;-50
2021/07/20 12:05:36;;;;;;;4.30;1.57;;;23.10;99.90;;;;;;20661491;28;20073;-50
2021/07/20 12:15:38;;;;;;;5.28;1.63;;;22.80;99.90;;;;;;20728249;28;20068;-49
2021/07/20 12:25:40;;;;;;;3.78;1.27;;;23.40;99.90;;;;;;20645732;28;20168;-48
2021/07/20 12:35:45;;;;;;;5.20;1.80;;;22.90;99.90;;;;;;20732257;28;20123;-48
2021/07/20 12:45:47;;;;;;;4.38;1.42;;;23.20;99.90;;;;;;20728346;28;20042;-50
2021/07/20 12:55:49;;;;;;;4.55;1.75;;;23.80;99.90;;;;;;20722595;28;20084;-50
2021/07/20 13:05:51;;;;;;;4.13;1.65;;;23.70;99.90;;;;;;20718765;28;20053;-47
2021/07/20 13:15:52;;;;;;;3.50;1.40;;;23.60;99.90;;;;;;20720153;28;20050;-50
2021/07/20 13:25:55;;;;;;;3.47;1.58;;;24.40;99.90;;;;;;20723311;28;20048;-47
2021/07/20 13:35:57;;;;;;;5.25;1.50;;;24.30;99.90;;;;;;20724632;28;20537;-47
2021/07/20 13:46:02;;;;;;;6.20;2.00;;;24.00;99.90;;;;;;20669611;28;20052;-47
2021/07/20 13:56:15;;;;;;;3.42;1.70;;;23.90;99.90;;;;;;20709146;28;20042;-47
2021/07/20 14:06:17;;;;;;;4.72;1.80;;;23.70;99.90;;;;;;20726331;28;20072;-47
2021/07/20 14:16:19;;;;;;;4.30;1.63;;;23.80;99.90;;;;;;20713137;28;20131;-47
2021/07/20 14:26:20;;;;;;;7.43;1.95;;;23.70;99.90;;;;;;20729386;28;20046;-47
2021/07/20 14:36:42;;;;;;;4.78;1.88;;;23.80;99.90;;;;;;20732653;28;20069;-47
2021/07/20 14:46:44;;;;;;;5.28;2.10;;;24.00;99.90;;;;;;20735183;28;20045;-47
2021/07/20 14:56:49;;;;;;;5.75;2.42;;;23.60;99.90;;;;;;20717101;28;20139;-47
2021/07/20 15:06:50;;;;;;;4.25;1.98;;;23.70;99.90;;;;;;20656465;28;20073;-47
2021/07/20 15:16:58;;;;;;;5.75;2.38;;;23.50;99.90;;;;;;20729747;28;20047;-48
2021/07/20 15:27:02;;;;;;;4.75;1.90;;;23.50;99.90;;;;;;20740216;28;20054;-47
2021/07/20 15:37:08;;;;;;;4.80;2.03;;;23.20;99.90;;;;;;20721823;28;20050;-47
2021/07/20 15:47:11;;;;;;;6.07;2.13;;;23.10;99.90;;;;;;20706295;28;20056;-47
2021/07/20 15:57:13;;;;;;;4.68;1.60;;;23.30;99.90;;;;;;20754485;28;20084;-49
2021/07/20 16:07:16;;;;;;;3.92;1.88;;;23.30;99.90;;;;;;20748325;28;20064;-47
2021/07/20 16:17:18;;;;;;;7.10;2.00;;;23.00;99.90;;;;;;20754474;28;20026;-47
2021/07/20 16:27:20;;;;;;;4.90;2.00;;;23.00;99.90;;;;;;20750725;28;20046;-47
2021/07/20 16:37:21;;;;;;;4.47;2.05;;;22.80;99.90;;;;;;20746315;28;20041;-47
2021/07/20 16:47:22;;;;;;;5.60;1.67;;;22.50;99.90;;;;;;20727205;28;20053;-50
2021/07/20 16:57:28;;;;;;;6.35;1.60;;;22.70;99.90;;;;;;20719012;28;20038;-49
2021/07/20 17:07:31;;;;;;;6.57;2.63;;;22.50;99.90;;;;;;20723244;28;20412;-50
2021/07/20 17:17:34;;;;;;;4.60;1.80;;;22.30;99.90;;;;;;20736198;28;20041;-50
2021/07/20 17:27:35;;;;;;;5.40;2.35;;;22.20;99.90;;;;;;20685146;28;20057;-50
2021/07/20 17:37:49;;;;;;;5.00;1.73;;;22.30;99.90;;;;;;20743295;28;20052;-50
2021/07/20 17:47:50;;;;;;;3.55;1.67;;;22.30;99.90;;;;;;20728476;28;20562;-49
2021/07/20 17:57:54;;;;;;;5.20;2.05;;;22.10;99.90;;;;;;20699022;28;20128;-50
2021/07/20 18:07:56;;;;;;;3.55;1.65;;;22.00;99.90;;;;;;20729825;28;20549;-50
2021/07/20 18:18:02;;;;;;;5.68;2.03;;;21.90;99.90;;;;;;20720434;28;20520;-50
2021/07/20 18:28:03;;;;;;;4.55;1.73;;;21.70;99.90;;;;;;20725167;28;20069;-49
2021/07/20 18:38:04;;;;;;;7.63;2.83;;;21.50;99.90;;;;;;20722464;28;20540;-50
2021/07/20 18:48:06;;;;;;;3.85;1.60;;;21.40;99.90;;;;;;20746601;28;20060;-50
2021/07/20 18:58:07;;;;;;;5.03;2.05;;;21.20;99.90;;;;;;20744479;28;20067;-50
2021/07/20 19:08:09;;;;;;;4.53;1.95;;;21.30;99.90;;;;;;20741607;28;20045;-50
2021/07/20 19:18:10;;;;;;;4.70;2.08;;;21.10;99.90;;;;;;20739634;28;20428;-50
2021/07/20 19:28:12;;;;;;;5.13;1.98;;;21.00;99.90;;;;;;20734677;28;20495;-49
2021/07/20 19:38:14;;;;;;;5.10;1.80;;;20.90;99.90;;;;;;20730646;28;20069;-51
2021/07/20 19:48:15;;;;;;;6.57;2.25;;;20.70;99.90;;;;;;20741983;28;20433;-50
2021/07/20 19:58:17;;;;;;;6.55;1.60;;;20.60;99.90;;;;;;20744095;28;20397;-50
2021/07/20 20:08:18;;;;;;;6.05;2.92;;;20.30;99.90;;;;;;20740013;28;20038;-50
2021/07/20 20:18:20;;;;;;;4.78;1.52;;;20.20;99.90;;;;;;20748880;28;20378;-50
2021/07/20 20:28:21;;;;;;;5.75;1.90;;;20.00;99.90;;;;;;20744879;28;20556;-50
2021/07/20 20:38:22;;;;;;;7.55;1.50;;;19.80;99.90;;;;;;20726882;28;20394;-49
2021/07/20 20:48:23;;;;;;;6.78;2.05;;;19.70;99.90;;;;;;20736387;28;20487;-50
2021/07/20 20:58:25;;;;;;;4.05;1.50;;;19.60;99.90;;;;;;20726287;28;20389;-49
2021/07/20 21:08:26;;;;;;;6.15;2.10;;;19.40;99.90;;;;;;20736795;28;20660;-49
2021/07/20 21:18:27;;;;;;;5.38;1.58;;;19.40;99.90;;;;;;20745708;28;20447;-49
2021/07/20 21:28:28;;;;;;;6.40;1.90;;;19.20;99.90;;;;;;20729888;28;20492;-49
2021/07/20 21:38:29;;;;;;;3.65;1.25;;;19.10;99.90;;;;;;20722331;28;20583;-48
2021/07/20 21:48:34;;;;;;;3.00;1.70;;;19.00;99.90;;;;;;20704289;28;20692;-49
2021/07/20 21:58:36;;;;;;;4.53;1.85;;;18.90;99.90;;;;;;20746653;28;20382;-49
2021/07/20 22:08:37;;;;;;;5.82;2.33;;;18.70;99.90;;;;;;20728436;28;20140;-48
2021/07/20 22:18:38;;;;;;;6.22;3.03;;;18.60;99.90;;;;;;20752382;28;20210;-48
2021/07/20 22:28:40;;;;;;;4.95;1.70;;;18.40;99.90;;;;;;20734893;28;20581;-49
2021/07/20 22:38:42;;;;;;;4.13;1.52;;;18.30;99.90;;;;;;20766761;28;20472;-48
2021/07/20 22:48:43;;;;;;;4.60;1.50;;;18.20;99.90;;;;;;20768607;28;20447;-47
2021/07/20 22:58:44;;;;;;;4.70;2.22;;;18.10;99.90;;;;;;20772490;28;20041;-48
2021/07/20 23:08:45;;;;;;;5.15;1.80;;;18.00;99.90;;;;;;20772032;28;20049;-50
2021/07/20 23:18:48;;;;;;;4.13;1.67;;;17.80;99.90;;;;;;20770912;28;20057;-48
2021/07/20 23:28:49;;;;;;;7.40;1.90;;;17.60;99.90;;;;;;20765027;28;20502;-48
2021/07/20 23:38:50;;;;;;;6.85;2.15;;;17.50;99.90;;;;;;20751675;28;20563;-48
2021/07/20 23:48:51;;;;;;;6.85;1.55;;;17.40;99.90;;;;;;20761792;28;20508;-48
2021/07/20 23:58:53;;;;;;;5.20;1.40;;;17.30;99.90;;;;;;20761545;28;21057;-48
